Time;durP1;ratioP1;P1;durP2;ratioP2;P2;SDS_P1;SDS_P2;PMS_P1;PMS_P2;Temp;Humidity;BMP_temperature;BMP_pressure;BME280_temperature;BME280_humidity;BME280_pressure;Samples;Min_cycle;Max_cycle;Signal;HPM_P1;HPM_P2
2020/12/07 00:02:23;;;;;;;14.70;9.77;;;10.30;88.50;;;;;;5032581;28;20029;-70
2020/12/07 00:04:49;;;;;;;14.35;8.88;;;10.30;88.10;;;;;;5032358;28;20513;-71
2020/12/07 00:07:15;;;;;;;11.07;7.50;;;10.30;88.10;;;;;;5034138;28;20366;-67
2020/12/07 00:09:41;;;;;;;11.75;6.07;;;10.30;88.10;;;;;;5036578;28;20087;-67
2020/12/07 00:12:07;;;;;;;10.18;6.82;;;10.30;88.10;;;;;;5036782;28;20009;-66
2020/12/07 00:14:33;;;;;;;9.73;5.10;;;10.30;88.00;;;;;;5036526;28;20052;-71
2020/12/07 00:16:59;;;;;;;7.65;4.80;;;10.20;88.10;;;;;;5035866;28;20026;-71
2020/12/07 00:19:24;;;;;;;15.35;8.77;;;10.20;88.20;;;;;;5036162;28;20046;-67
2020/12/07 00:21:50;;;;;;;8.10;5.18;;;10.20;88.30;;;;;;5036124;28;20018;-71
2020/12/07 00:24:16;;;;;;;10.07;4.43;;;10.20;88.20;;;;;;5035790;28;20029;-67
2020/12/07 00:26:44;;;;;;;10.80;4.70;;;10.10;88.20;;;;;;5036095;28;20033;-67
2020/12/07 00:29:10;;;;;;;10.82;4.60;;;10.10;88.30;;;;;;5036330;28;20043;-70
2020/12/07 00:31:36;;;;;;;7.10;4.20;;;10.10;88.40;;;;;;5036125;28;20112;-70
2020/12/07 00:34:02;;;;;;;7.90;3.87;;;10.10;88.00;;;;;;5036279;28;20036;-71
2020/12/07 00:36:28;;;;;;;6.33;3.47;;;10.10;88.10;;;;;;5035809;28;20359;-67
2020/12/07 00:38:54;;;;;;;11.03;3.83;;;10.10;88.00;;;;;;5035589;28;20026;-67
2020/12/07 00:41:23;;;;;;;5.87;3.10;;;10.10;87.90;;;;;;5036155;28;20087;-70
2020/12/07 00:43:50;;;;;;;10.07;4.03;;;10.10;87.60;;;;;;5035904;28;20482;-71
2020/12/07 00:46:16;;;;;;;10.32;3.72;;;10.10;87.70;;;;;;5035769;28;20029;-69
2020/12/07 00:48:42;;;;;;;7.13;3.50;;;10.10;87.90;;;;;;5035679;28;20033;-67
2020/12/07 00:51:08;;;;;;;8.43;5.85;;;10.00;87.20;;;;;;5035878;28;20020;-68
2020/12/07 00:53:34;;;;;;;11.33;7.80;;;10.10;87.30;;;;;;5035687;28;20486;-71
2020/12/07 00:56:00;;;;;;;10.23;5.23;;;10.10;87.40;;;;;;5035561;28;20038;-67
2020/12/07 00:58:26;;;;;;;8.03;4.73;;;10.10;87.70;;;;;;5035676;28;20441;-67
2020/12/07 01:00:52;;;;;;;9.13;4.40;;;10.10;88.00;;;;;;5035614;28;20029;-66
2020/12/07 01:03:18;;;;;;;10.43;4.78;;;10.10;88.20;;;;;;5035415;28;20094;-66
2020/12/07 01:05:44;;;;;;;7.32;5.18;;;10.10;88.50;;;;;;5035524;28;20044;-70
2020/12/07 01:08:10;;;;;;;8.90;5.90;;;10.00;88.70;;;;;;5035447;28;20025;-71
2020/12/07 01:10:36;;;;;;;9.82;5.68;;;10.00;88.80;;;;;;5035193;28;20103;-67
2020/12/07 01:13:02;;;;;;;8.63;6.33;;;10.00;88.90;;;;;;5035157;28;20482;-70
2020/12/07 01:15:28;;;;;;;9.37;6.07;;;10.00;89.00;;;;;;5035207;28;20471;-71
2020/12/07 01:17:54;;;;;;;11.82;5.97;;;10.00;89.10;;;;;;5035042;28;20116;-66
2020/12/07 01:20:19;;;;;;;15.82;5.53;;;10.00;89.10;;;;;;5034494;28;20025;-67
2020/12/07 01:22:45;;;;;;;8.00;5.35;;;10.00;89.10;;;;;;5035050;28;20026;-71
2020/12/07 01:25:11;;;;;;;11.02;5.60;;;10.00;89.20;;;;;;5035458;28;20041;-71
2020/12/07 01:27:36;;;;;;;12.17;6.23;;;10.00;89.30;;;;;;5035281;28;20021;-67
2020/12/07 01:30:03;;;;;;;8.73;5.40;;;10.00;89.40;;;;;;5035201;28;20425;-71
2020/12/07 01:32:29;;;;;;;9.80;5.03;;;10.00;89.30;;;;;;5035036;28;20057;-66
2020/12/07 01:34:55;;;;;;;9.00;5.57;;;10.00;89.20;;;;;;5034912;28;20057;-71
2020/12/07 01:37:21;;;;;;;7.07;5.33;;;10.00;89.40;;;;;;5034819;28;20108;-71
2020/12/07 01:39:46;;;;;;;8.90;5.60;;;10.00;89.50;;;;;;5034973;28;20108;-67
2020/12/07 01:42:12;;;;;;;11.15;5.35;;;9.90;89.30;;;;;;5034743;28;20025;-67
2020/12/07 01:44:38;;;;;;;10.00;5.63;;;9.90;89.30;;;;;;5034820;28;20095;-67
2020/12/07 01:47:30;;;;;;;9.32;5.25;;;9.90;89.20;;;;;;5034729;28;20036;-67
2020/12/07 01:49:56;;;;;;;8.75;5.60;;;9.90;89.00;;;;;;5034340;28;20064;-67
2020/12/07 01:52:24;;;;;;;7.53;5.77;;;9.90;89.00;;;;;;5034696;28;20044;-70
2020/12/07 01:54:51;;;;;;;9.57;5.77;;;9.90;89.10;;;;;;5034759;28;20048;-71
2020/12/07 01:57:16;;;;;;;11.07;8.33;;;9.80;89.00;;;;;;5034777;28;20025;-71
2020/12/07 01:59:42;;;;;;;12.00;7.53;;;9.80;88.90;;;;;;5031366;28;20037;-71
2020/12/07 02:02:08;;;;;;;10.70;7.00;;;9.80;89.10;;;;;;5031404;28;20025;-71
2020/12/07 02:04:34;;;;;;;15.47;5.93;;;9.80;89.00;;;;;;5032419;28;20552;-67
2020/12/07 02:06:59;;;;;;;7.57;5.83;;;9.70;89.00;;;;;;5033996;28;20028;-67
2020/12/07 02:09:29;;;;;;;7.17;5.03;;;9.70;88.90;;;;;;5034088;28;20108;-67
2020/12/07 02:11:55;;;;;;;7.73;5.40;;;9.70;88.80;;;;;;5034246;28;20088;-71
2020/12/07 02:14:21;;;;;;;7.80;5.35;;;9.70;88.90;;;;;;5033998;28;20103;-67
2020/12/07 02:16:47;;;;;;;9.33;4.90;;;9.70;89.00;;;;;;5033913;28;20467;-67
2020/12/07 02:19:13;;;;;;;8.75;4.90;;;9.70;89.10;;;;;;5033585;28;20103;-68
2020/12/07 02:21:39;;;;;;;10.47;4.80;;;9.70;89.10;;;;;;5033940;28;20075;-70
2020/12/07 02:24:05;;;;;;;6.40;4.60;;;9.70;89.10;;;;;;5033684;28;20033;-70
2020/12/07 02:26:32;;;;;;;8.27;4.47;;;9.70;89.20;;;;;;5033616;28;20048;-67
2020/12/07 02:28:57;;;;;;;7.70;5.30;;;9.70;89.20;;;;;;5033243;28;20064;-67
2020/12/07 02:31:23;;;;;;;9.95;6.55;;;9.70;89.20;;;;;;5032882;28;20049;-70
2020/12/07 02:33:49;;;;;;;11.17;5.40;;;9.70;89.60;;;;;;5033622;28;20021;-69
2020/12/07 02:36:15;;;;;;;6.40;4.73;;;9.70;89.60;;;;;;5033522;28;20025;-71
2020/12/07 02:38:40;;;;;;;6.60;4.67;;;9.70;89.50;;;;;;5033492;28;20018;-71
2020/12/07 02:41:06;;;;;;;6.63;4.80;;;9.70;89.40;;;;;;5033719;28;20033;-70
2020/12/07 02:43:32;;;;;;;7.37;5.10;;;9.70;89.20;;;;;;5033297;28;20429;-70
2020/12/07 02:45:58;;;;;;;8.73;5.03;;;9.70;89.30;;;;;;5033413;28;20037;-70
2020/12/07 02:48:23;;;;;;;7.10;5.25;;;9.60;89.50;;;;;;5033607;28;20053;-70
2020/12/07 02:50:49;;;;;;;6.13;5.40;;;9.70;89.50;;;;;;5033259;28;20032;-67
2020/12/07 02:53:15;;;;;;;9.93;5.33;;;9.60;89.50;;;;;;5033333;28;20444;-71
2020/12/07 02:55:41;;;;;;;13.87;4.83;;;9.60;89.50;;;;;;5033416;28;20036;-66
2020/12/07 02:58:06;;;;;;;5.87;5.00;;;9.60;89.40;;;;;;5033384;28;20096;-67
2020/12/07 03:00:32;;;;;;;7.53;5.30;;;9.60;89.40;;;;;;5033248;28;20106;-69
2020/12/07 03:02:58;;;;;;;7.68;5.65;;;9.60;89.40;;;;;;5033385;28;20021;-71
2020/12/07 03:05:24;;;;;;;7.20;5.90;;;9.60;89.60;;;;;;5033126;28;20021;-67
2020/12/07 03:07:49;;;;;;;9.57;6.70;;;9.60;89.60;;;;;;5033377;28;20028;-68
2020/12/07 03:10:15;;;;;;;8.73;6.90;;;9.60;89.70;;;;;;5033391;28;20025;-71
2020/12/07 03:12:40;;;;;;;7.77;6.93;;;9.60;89.80;;;;;;5033527;28;20021;-67
2020/12/07 03:15:06;;;;;;;10.87;7.03;;;9.60;89.90;;;;;;5032992;28;20071;-69
2020/12/07 03:17:32;;;;;;;10.43;6.83;;;9.60;90.00;;;;;;5033028;28;20108;-70
2020/12/07 03:19:57;;;;;;;11.32;6.50;;;9.60;90.00;;;;;;5033015;28;20112;-67
2020/12/07 03:22:23;;;;;;;10.07;6.70;;;9.60;89.90;;;;;;5033155;28;20069;-71
2020/12/07 03:24:49;;;;;;;10.10;5.85;;;9.60;89.80;;;;;;5032949;28;20037;-67
2020/12/07 03:27:14;;;;;;;8.40;5.63;;;9.60;89.70;;;;;;5033262;28;20032;-66
2020/12/07 03:29:40;;;;;;;7.77;6.27;;;9.60;89.70;;;;;;5032708;28;20033;-69
2020/12/07 03:32:06;;;;;;;10.17;6.47;;;9.60;90.20;;;;;;5032977;28;20036;-70
2020/12/07 03:34:32;;;;;;;14.80;7.07;;;9.60;89.90;;;;;;5032897;28;20484;-67
2020/12/07 03:36:58;;;;;;;9.30;6.50;;;9.60;90.00;;;;;;5033404;28;20402;-70
2020/12/07 03:39:24;;;;;;;15.37;8.37;;;9.60;90.00;;;;;;5032667;28;20022;-71
2020/12/07 03:41:49;;;;;;;10.50;6.57;;;9.60;90.00;;;;;;5033706;28;20053;-67
2020/12/07 03:44:15;;;;;;;10.87;6.77;;;9.60;90.00;;;;;;5036767;28;20492;-68
2020/12/07 03:46:41;;;;;;;7.43;6.37;;;9.60;90.00;;;;;;5036894;28;20105;-66
2020/12/07 03:49:06;;;;;;;8.90;5.93;;;9.60;90.00;;;;;;5037130;28;20040;-70
2020/12/07 03:51:32;;;;;;;8.00;6.17;;;9.60;90.00;;;;;;5036716;28;20063;-71
2020/12/07 03:53:58;;;;;;;7.33;5.67;;;9.60;90.00;;;;;;5037177;28;20083;-71
2020/12/07 03:56:24;;;;;;;7.23;5.80;;;9.60;90.00;;;;;;5036687;28;20026;-67
2020/12/07 03:58:49;;;;;;;8.00;5.60;;;9.50;89.00;;;;;;5037049;28;20022;-67
2020/12/07 04:01:15;;;;;;;8.40;5.38;;;9.50;89.10;;;;;;5036795;28;20025;-67
2020/12/07 04:03:44;;;;;;;10.67;5.27;;;9.50;89.10;;;;;;5036528;28;20486;-67
2020/12/07 04:06:17;;;;;;;9.07;6.27;;;9.40;89.00;;;;;;5035582;28;20022;-67
2020/12/07 04:08:43;;;;;;;6.50;5.60;;;9.40;89.10;;;;;;5036649;28;20048;-69
2020/12/07 04:11:09;;;;;;;6.70;5.33;;;9.40;89.10;;;;;;5036634;28;20079;-70
2020/12/07 04:13:34;;;;;;;8.13;5.03;;;9.40;89.00;;;;;;5036794;28;20071;-68
2020/12/07 04:16:03;;;;;;;9.47;5.00;;;9.40;89.00;;;;;;5036359;28;20096;-70
2020/12/07 04:18:29;;;;;;;5.43;4.73;;;9.40;89.00;;;;;;5036431;28;20063;-67
2020/12/07 04:20:55;;;;;;;9.97;5.50;;;9.30;88.80;;;;;;5036487;28;20022;-68
2020/12/07 04:23:21;;;;;;;6.67;4.47;;;9.30;88.60;;;;;;5036092;28;20084;-67
2020/12/07 04:25:46;;;;;;;6.27;4.73;;;9.30;88.60;;;;;;5036257;28;20038;-67
2020/12/07 04:28:12;;;;;;;7.67;4.83;;;9.30;88.40;;;;;;5036210;28;20029;-67
2020/12/07 04:30:40;;;;;;;5.97;4.53;;;9.20;88.50;;;;;;5036306;28;20112;-67
2020/12/07 04:33:05;;;;;;;5.83;4.47;;;9.20;88.40;;;;;;5036214;28;20033;-68
2020/12/07 04:35:31;;;;;;;6.30;5.50;;;9.20;88.40;;;;;;5036222;28;20421;-70
2020/12/07 04:37:57;;;;;;;7.43;5.67;;;9.10;88.30;;;;;;5036059;28;20458;-69
2020/12/07 04:40:24;;;;;;;8.40;4.93;;;9.10;88.40;;;;;;5036090;28;20034;-70
2020/12/07 04:42:50;;;;;;;7.17;4.87;;;9.10;88.60;;;;;;5036137;28;20074;-68
2020/12/07 04:45:16;;;;;;;7.00;5.33;;;9.10;88.60;;;;;;5036028;28;20101;-70
2020/12/07 04:47:43;;;;;;;6.37;5.30;;;9.10;88.80;;;;;;5036038;28;20494;-68
2020/12/07 04:50:09;;;;;;;8.17;5.53;;;9.10;89.00;;;;;;5036111;28;20364;-69
2020/12/07 04:52:34;;;;;;;6.10;5.00;;;9.10;89.00;;;;;;5035573;28;20029;-67
2020/12/07 04:55:03;;;;;;;9.43;5.90;;;9.10;89.20;;;;;;5034165;28;20027;-71
2020/12/07 04:57:30;;;;;;;7.73;5.17;;;9.10;89.30;;;;;;5035682;28;20026;-70
2020/12/07 04:59:57;;;;;;;7.93;5.33;;;9.20;89.50;;;;;;5035686;28;20026;-67
2020/12/07 05:02:23;;;;;;;7.63;5.13;;;9.20;89.50;;;;;;5035700;28;20032;-66
2020/12/07 05:04:49;;;;;;;10.80;5.53;;;9.20;89.40;;;;;;5035511;28;20034;-69
2020/12/07 05:07:14;;;;;;;9.33;5.40;;;9.20;89.40;;;;;;5035387;28;20021;-68
2020/12/07 05:09:41;;;;;;;5.47;4.97;;;9.10;89.50;;;;;;5035247;28;20029;-70
2020/12/07 05:12:18;;;;;;;6.87;4.90;;;9.10;89.50;;;;;;5035382;28;20022;-67
2020/12/07 05:14:44;;;;;;;7.63;4.17;;;9.10;89.40;;;;;;5035453;28;20088;-70
2020/12/07 05:17:10;;;;;;;7.93;4.30;;;9.10;89.20;;;;;;5035169;28;20025;-69
2020/12/07 05:19:35;;;;;;;14.47;5.90;;;9.10;88.90;;;;;;5035228;28;20104;-71
2020/12/07 05:22:01;;;;;;;7.73;4.60;;;9.10;88.70;;;;;;5035273;28;20034;-68
2020/12/07 05:24:27;;;;;;;6.43;4.80;;;9.10;88.70;;;;;;5035028;28;20041;-71
2020/12/07 05:26:54;;;;;;;7.83;4.83;;;9.10;88.80;;;;;;5035043;28;20025;-70
2020/12/07 05:29:30;;;;;;;5.80;4.40;;;9.10;88.90;;;;;;5034956;28;20466;-67
2020/12/07 05:31:57;;;;;;;8.17;5.10;;;9.10;89.00;;;;;;5034852;28;20025;-70
2020/12/07 05:34:25;;;;;;;7.93;5.00;;;9.10;89.00;;;;;;5034689;28;20025;-67
2020/12/07 05:36:56;;;;;;;8.47;4.93;;;9.10;89.10;;;;;;5035108;28;20029;-70
2020/12/07 05:39:25;;;;;;;7.90;5.00;;;9.10;89.30;;;;;;5034950;28;20036;-69
2020/12/07 05:41:55;;;;;;;6.80;4.73;;;9.10;89.40;;;;;;5034666;28;20022;-66
2020/12/07 05:44:21;;;;;;;8.40;4.30;;;9.10;89.40;;;;;;5034534;28;20049;-70
2020/12/07 05:46:51;;;;;;;6.63;4.20;;;9.10;89.20;;;;;;5034901;28;20584;-70
2020/12/07 05:49:18;;;;;;;8.37;4.57;;;9.10;89.00;;;;;;5034835;28;20025;-67
2020/12/07 05:51:52;;;;;;;6.67;4.33;;;9.10;88.90;;;;;;5034425;28;20466;-69
2020/12/07 05:54:21;;;;;;;8.77;4.60;;;9.10;88.90;;;;;;5034681;28;20419;-67
2020/12/07 05:56:51;;;;;;;5.40;4.23;;;9.10;88.80;;;;;;5034566;28;20367;-67
2020/12/07 05:59:25;;;;;;;5.07;3.60;;;9.10;88.50;;;;;;5034795;28;20052;-68
2020/12/07 06:01:51;;;;;;;5.63;3.90;;;9.00;88.30;;;;;;5034624;28;20060;-68
2020/12/07 06:04:18;;;;;;;7.90;4.20;;;9.00;88.40;;;;;;5034238;28;20064;-70
2020/12/07 06:06:48;;;;;;;7.63;4.20;;;9.00;88.50;;;;;;5034207;28;20029;-66
2020/12/07 06:09:25;;;;;;;5.43;4.47;;;9.00;88.50;;;;;;5034470;28;20025;-67
2020/12/07 06:12:11;;;;;;;7.57;4.90;;;9.00;88.60;;;;;;5034108;28;20052;-69
2020/12/07 06:14:38;;;;;;;10.07;5.57;;;9.00;88.60;;;;;;5034005;28;20028;-71
2020/12/07 06:17:04;;;;;;;8.13;5.77;;;9.00;88.60;;;;;;5033911;28;20021;-66
2020/12/07 06:19:32;;;;;;;9.30;6.50;;;9.00;88.70;;;;;;5033879;28;20436;-69
2020/12/07 06:22:02;;;;;;;9.03;6.80;;;9.00;88.50;;;;;;5034292;28;20028;-67
2020/12/07 06:24:41;;;;;;;12.23;6.73;;;9.00;88.80;;;;;;5033762;28;20037;-67
2020/12/07 06:27:15;;;;;;;6.17;5.10;;;9.00;88.80;;;;;;5034055;28;20064;-67
2020/12/07 06:30:03;;;;;;;7.13;5.13;;;9.00;88.60;;;;;;5033961;28;20029;-67
2020/12/07 06:32:44;;;;;;;7.10;5.53;;;9.00;88.50;;;;;;5034144;28;20021;-68
2020/12/07 06:35:11;;;;;;;10.60;4.87;;;9.00;88.50;;;;;;5033995;28;20390;-68
2020/12/07 06:37:42;;;;;;;7.03;5.40;;;9.00;88.40;;;;;;5033777;28;20117;-67
2020/12/07 06:40:08;;;;;;;7.27;5.23;;;9.00;88.40;;;;;;5034058;28;20063;-70
2020/12/07 06:42:43;;;;;;;13.00;5.13;;;9.00;88.40;;;;;;5034134;28;20113;-67
2020/12/07 06:45:20;;;;;;;7.57;5.07;;;9.00;88.50;;;;;;5033342;28;20073;-67
2020/12/07 06:47:48;;;;;;;8.10;5.07;;;9.00;88.40;;;;;;5032536;28;20025;-67
2020/12/07 06:50:17;;;;;;;6.17;4.47;;;9.00;88.30;;;;;;5033921;28;20056;-71
2020/12/07 06:52:45;;;;;;;6.93;4.57;;;9.00;88.30;;;;;;5033611;28;20029;-68
2020/12/07 06:55:12;;;;;;;7.37;4.37;;;9.00;88.20;;;;;;5033645;28;20473;-67
2020/12/07 06:57:44;;;;;;;10.70;4.83;;;9.00;88.40;;;;;;5033573;28;20461;-68
2020/12/07 07:00:26;;;;;;;8.23;4.80;;;9.00;88.40;;;;;;5033400;28;20466;-67
2020/12/07 07:02:57;;;;;;;8.75;4.22;;;9.00;88.40;;;;;;5033584;28;20044;-67
2020/12/07 07:05:25;;;;;;;7.33;4.30;;;9.00;88.40;;;;;;5033309;28;20069;-70
2020/12/07 07:07:51;;;;;;;5.37;4.33;;;9.00;88.30;;;;;;5033181;28;20240;-70
2020/12/07 07:10:17;;;;;;;6.70;4.17;;;9.00;88.20;;;;;;5033268;28;20053;-68
2020/12/07 07:12:44;;;;;;;9.70;4.43;;;9.10;88.30;;;;;;5033479;28;20714;-67
2020/12/07 07:15:11;;;;;;;6.90;3.97;;;9.00;88.10;;;;;;5033169;28;20025;-70
2020/12/07 07:17:39;;;;;;;5.87;3.80;;;9.00;88.10;;;;;;5032188;28;20052;-67
2020/12/07 07:20:07;;;;;;;11.40;3.50;;;9.10;88.10;;;;;;5033118;28;20084;-66
2020/12/07 07:22:35;;;;;;;6.87;3.37;;;9.10;88.10;;;;;;5031352;28;20033;-70
2020/12/07 07:30:21;;;;;;;4.17;3.23;;;9.00;87.70;;;;;;5032777;28;20034;-70
2020/12/07 07:32:48;;;;;;;5.53;2.80;;;9.10;87.70;;;;;;5032931;28;20053;-69
2020/12/07 07:35:17;;;;;;;4.53;2.63;;;9.00;87.60;;;;;;5032739;28;20036;-68
2020/12/07 07:37:43;;;;;;;5.37;2.70;;;9.00;87.40;;;;;;5032734;28;20033;-68
2020/12/07 07:40:16;;;;;;;4.87;2.70;;;9.00;87.40;;;;;;5031000;28;20103;-68
2020/12/07 07:42:46;;;;;;;4.53;2.83;;;9.00;87.60;;;;;;5030354;28;20026;-68
2020/12/07 07:45:12;;;;;;;4.20;2.83;;;9.00;87.60;;;;;;5031427;28;20033;-67
2020/12/07 07:47:47;;;;;;;6.00;3.20;;;9.00;87.70;;;;;;5032898;28;20100;-69
2020/12/07 08:16:58;;;;;;;6.00;2.83;;;9.00;87.80;;;;;;5034034;28;20081;-67
2020/12/07 08:19:30;;;;;;;7.43;3.00;;;8.90;87.90;;;;;;5032713;28;20033;-66
2020/12/07 08:22:10;;;;;;;5.57;3.42;;;9.00;88.50;;;;;;5032630;28;20026;-66
2020/12/07 08:24:53;;;;;;;10.20;6.17;;;9.00;88.80;;;;;;5031917;28;20037;-67
2020/12/07 08:27:19;;;;;;;9.20;6.37;;;9.00;88.80;;;;;;5032550;28;20032;-67
2020/12/07 08:29:45;;;;;;;10.40;6.90;;;9.00;88.90;;;;;;5036138;28;20029;-67
2020/12/07 08:32:23;;;;;;;9.50;6.80;;;9.00;89.00;;;;;;5036167;28;20025;-67
2020/12/07 08:34:50;;;;;;;8.67;6.03;;;9.00;89.20;;;;;;5034237;28;20029;-67
2020/12/07 08:37:15;;;;;;;11.60;7.83;;;9.00;89.40;;;;;;5035323;28;20537;-67
2020/12/07 08:39:41;;;;;;;17.63;9.40;;;9.00;89.40;;;;;;5036181;28;20117;-67
2020/12/07 08:42:07;;;;;;;15.67;8.50;;;9.00;89.30;;;;;;5055159;28;20029;-67
2020/12/07 08:44:33;;;;;;;11.17;5.90;;;9.00;89.30;;;;;;5054712;28;20044;-67
2020/12/07 08:46:59;;;;;;;9.07;4.50;;;9.00;89.30;;;;;;5055098;28;20021;-68
2020/12/07 08:49:24;;;;;;;8.20;6.20;;;9.00;89.40;;;;;;5054911;28;20037;-70
2020/12/07 08:51:52;;;;;;;10.30;7.87;;;9.00;89.20;;;;;;5055971;28;20048;-68
2020/12/07 08:54:17;;;;;;;6.20;4.23;;;9.00;89.50;;;;;;5055767;28;20029;-72
2020/12/07 08:56:43;;;;;;;5.60;4.20;;;9.00;89.40;;;;;;5055718;28;20428;-71
2020/12/07 08:59:09;;;;;;;5.77;3.87;;;9.00;89.40;;;;;;5055764;28;20028;-69
2020/12/07 09:01:34;;;;;;;7.07;3.97;;;9.00;89.50;;;;;;5055382;28;20021;-69
2020/12/07 09:04:02;;;;;;;5.73;3.80;;;9.00;89.80;;;;;;5055751;28;20429;-70
2020/12/07 09:06:28;;;;;;;9.17;5.03;;;8.90;89.90;;;;;;5055431;28;20029;-70
2020/12/07 09:08:54;;;;;;;6.43;3.90;;;9.00;90.00;;;;;;5055816;28;20029;-68
2020/12/07 09:11:20;;;;;;;6.43;4.23;;;9.00;90.00;;;;;;5055113;28;20032;-68
2020/12/07 09:13:46;;;;;;;6.20;5.07;;;9.00;90.00;;;;;;5055248;28;20032;-70
2020/12/07 09:16:12;;;;;;;8.00;5.27;;;9.00;90.00;;;;;;5054872;28;20028;-67
2020/12/07 09:18:39;;;;;;;6.17;4.50;;;9.00;90.00;;;;;;5052641;28;20041;-68
2020/12/07 09:21:05;;;;;;;6.70;3.93;;;9.00;90.00;;;;;;5043195;28;20022;-67
2020/12/07 09:23:31;;;;;;;6.40;4.17;;;9.10;90.10;;;;;;5043324;28;20028;-67
2020/12/07 09:25:58;;;;;;;5.07;3.60;;;9.10;90.00;;;;;;5044644;28;20064;-67
2020/12/07 09:28:24;;;;;;;6.17;3.10;;;9.20;90.00;;;;;;5043570;28;20673;-67
2020/12/07 09:30:50;;;;;;;5.83;2.67;;;9.20;89.70;;;;;;5043366;28;20112;-67
2020/12/07 09:33:15;;;;;;;4.97;2.50;;;9.20;89.40;;;;;;5044567;28;20013;-67
2020/12/07 09:35:41;;;;;;;4.13;2.37;;;9.20;89.30;;;;;;5042926;28;20100;-67
2020/12/07 09:38:07;;;;;;;3.27;2.57;;;9.20;89.30;;;;;;5043491;28;20025;-67
2020/12/07 09:40:34;;;;;;;5.27;2.73;;;9.30;89.20;;;;;;5043602;28;20075;-67
2020/12/07 09:43:02;;;;;;;4.50;2.60;;;9.30;89.00;;;;;;5042461;28;20112;-67
2020/12/07 09:45:32;;;;;;;5.50;2.90;;;9.30;89.00;;;;;;5041717;28;20025;-67
2020/12/07 09:47:59;;;;;;;7.67;3.20;;;9.30;89.20;;;;;;5044389;28;20031;-71
2020/12/07 09:50:25;;;;;;;5.33;3.27;;;9.30;89.40;;;;;;5043059;28;20463;-69
2020/12/07 09:52:50;;;;;;;5.03;3.43;;;9.40;89.40;;;;;;5042506;28;20112;-69
2020/12/07 09:55:16;;;;;;;5.70;4.00;;;9.40;89.40;;;;;;5043766;28;20033;-71
2020/12/07 09:57:42;;;;;;;8.53;3.97;;;9.50;89.40;;;;;;5036760;28;20040;-68
2020/12/07 10:00:08;;;;;;;7.03;4.43;;;9.50;89.50;;;;;;5032857;28;20363;-69
2020/12/07 10:02:35;;;;;;;8.07;4.93;;;9.60;89.50;;;;;;5034603;28;20029;-69
2020/12/07 10:05:01;;;;;;;9.17;6.00;;;9.70;90.00;;;;;;5034498;28;20038;-69
2020/12/07 10:07:27;;;;;;;6.97;3.70;;;9.80;90.10;;;;;;5034592;28;20029;-69
2020/12/07 10:09:53;;;;;;;7.00;3.40;;;10.00;89.80;;;;;;5034606;28;20083;-69
2020/12/07 10:12:18;;;;;;;6.22;3.88;;;10.10;89.00;;;;;;5034439;28;20013;-69
2020/12/07 10:14:44;;;;;;;7.25;3.40;;;10.20;88.60;;;;;;5034565;28;20482;-69
2020/12/07 10:17:10;;;;;;;7.55;3.72;;;10.30;88.20;;;;;;5034132;28;20072;-69
2020/12/07 10:19:36;;;;;;;7.80;3.33;;;10.30;87.80;;;;;;5034563;28;20032;-68
2020/12/07 10:22:04;;;;;;;6.20;2.80;;;10.30;87.50;;;;;;5034190;28;20494;-70
2020/12/07 10:24:31;;;;;;;5.82;2.70;;;10.30;87.30;;;;;;5034051;28;20030;-69
2020/12/07 10:26:57;;;;;;;6.85;2.85;;;10.30;87.20;;;;;;5042184;28;20021;-73
2020/12/07 10:29:22;;;;;;;4.55;2.75;;;10.20;87.10;;;;;;5040183;28;20032;-75
2020/12/07 10:31:48;;;;;;;4.40;3.00;;;10.10;86.90;;;;;;5043431;28;20348;-68
2020/12/07 10:34:14;;;;;;;6.38;3.83;;;10.10;87.10;;;;;;5041751;28;20382;-70
2020/12/07 10:36:39;;;;;;;7.50;4.40;;;10.00;87.30;;;;;;5042304;28;20498;-68
2020/12/07 10:39:08;;;;;;;6.33;4.20;;;10.00;87.60;;;;;;5043293;28;20032;-69
2020/12/07 10:41:34;;;;;;;6.87;3.60;;;9.90;88.10;;;;;;5041433;28;20504;-70
2020/12/07 10:43:59;;;;;;;77.37;5.63;;;9.90;88.40;;;;;;5042064;28;20037;-70
2020/12/07 10:46:25;;;;;;;6.95;3.28;;;9.80;88.70;;;;;;5042871;28;20024;-67
2020/12/07 10:48:51;;;;;;;28.30;4.30;;;9.80;89.10;;;;;;5039643;28;20035;-67
2020/12/07 10:51:18;;;;;;;16.50;4.60;;;9.70;89.20;;;;;;5041839;28;20024;-69
2020/12/07 10:53:44;;;;;;;11.63;3.43;;;9.60;88.50;;;;;;5042838;28;20018;-69
2020/12/07 10:56:10;;;;;;;195.13;8.67;;;9.50;86.80;;;;;;5041219;28;20363;-69
2020/12/07 10:58:38;;;;;;;22.80;3.60;;;9.40;87.00;;;;;;5042515;28;20083;-68
2020/12/07 11:01:05;;;;;;;15.90;4.07;;;9.40;87.20;;;;;;5042785;28;20055;-67
2020/12/07 11:03:31;;;;;;;7.17;3.73;;;9.40;86.80;;;;;;5040896;28;20075;-71
2020/12/07 11:05:57;;;;;;;7.00;3.60;;;9.30;87.00;;;;;;5042232;28;20033;-69
2020/12/07 11:10:55;;;;;;;8.03;3.53;;;9.20;87.60;;;;;;5053564;28;20037;-69
2020/12/07 11:13:27;;;;;;;9.20;3.73;;;9.20;87.80;;;;;;5053231;28;20394;-67
2020/12/07 11:15:54;;;;;;;5.90;3.08;;;9.20;87.90;;;;;;5053189;28;20037;-68
2020/12/07 11:18:20;;;;;;;7.57;3.40;;;9.20;87.90;;;;;;5053271;28;20045;-67
2020/12/07 11:20:45;;;;;;;5.83;3.07;;;9.20;88.00;;;;;;5053269;28;20040;-69
2020/12/07 11:23:11;;;;;;;8.37;2.87;;;9.30;88.40;;;;;;5053167;28;20406;-69
2020/12/07 11:25:37;;;;;;;5.40;2.57;;;9.40;89.20;;;;;;5053014;28;20037;-68
2020/12/07 11:28:03;;;;;;;5.73;3.07;;;9.70;89.40;;;;;;5053402;28;20381;-68
2020/12/07 11:30:28;;;;;;;6.30;3.23;;;9.90;89.00;;;;;;5053129;28;20032;-68
2020/12/07 11:32:54;;;;;;;7.03;3.10;;;10.10;88.40;;;;;;5052828;28;20025;-66
2020/12/07 11:35:20;;;;;;;5.50;2.70;;;10.30;87.90;;;;;;5053075;28;20028;-67
2020/12/07 11:37:51;;;;;;;6.88;2.28;;;10.40;87.40;;;;;;5053076;28;20025;-69
2020/12/07 11:40:30;;;;;;;5.82;2.58;;;10.40;87.00;;;;;;5053068;28;20428;-69
2020/12/07 11:43:16;;;;;;;7.30;3.03;;;10.40;86.80;;;;;;5052815;28;20040;-68
2020/12/07 11:45:42;;;;;;;5.82;2.33;;;10.60;87.00;;;;;;5052899;28;20112;-67
2020/12/07 11:48:09;;;;;;;8.45;2.90;;;10.70;86.50;;;;;;5053023;28;20049;-68
2020/12/07 11:50:35;;;;;;;6.47;3.05;;;10.80;86.10;;;;;;5053252;28;20492;-67
2020/12/07 11:53:01;;;;;;;9.52;3.20;;;10.90;85.90;;;;;;5052937;28;20053;-67
2020/12/07 11:55:27;;;;;;;7.03;3.47;;;10.90;85.70;;;;;;5052524;28;20048;-67
2020/12/07 11:57:52;;;;;;;9.13;3.20;;;10.80;85.90;;;;;;5052820;28;20028;-67
2020/12/07 12:00:18;;;;;;;6.82;3.40;;;10.80;86.20;;;;;;5052821;28;20036;-67
2020/12/07 12:02:43;;;;;;;6.70;3.47;;;10.70;86.00;;;;;;5053559;28;20025;-67
2020/12/07 12:05:09;;;;;;;8.48;3.58;;;10.70;85.90;;;;;;5056036;28;20033;-68
2020/12/07 12:07:35;;;;;;;6.22;4.05;;;10.60;86.00;;;;;;5056465;28;20082;-67
2020/12/07 12:10:00;;;;;;;9.27;4.10;;;10.60;86.00;;;;;;5056451;28;20033;-69
2020/12/07 12:12:26;;;;;;;7.93;3.20;;;10.50;86.40;;;;;;5056529;28;20115;-67
2020/12/07 12:14:52;;;;;;;5.20;2.30;;;10.50;86.60;;;;;;5056247;28;20079;-68
2020/12/07 12:17:18;;;;;;;7.25;2.67;;;10.50;86.80;;;;;;5056575;28;20037;-68
2020/12/07 12:19:43;;;;;;;6.25;2.70;;;10.50;86.80;;;;;;5056567;28;20032;-68
2020/12/07 12:22:09;;;;;;;7.10;3.55;;;10.50;87.00;;;;;;5056613;28;20044;-67
2020/12/07 12:24:35;;;;;;;7.47;3.22;;;10.50;86.60;;;;;;5056384;28;20068;-70
2020/12/07 12:27:01;;;;;;;10.85;5.80;;;10.50;86.40;;;;;;5056494;28;20100;-68
2020/12/07 12:29:26;;;;;;;8.65;5.72;;;10.50;86.60;;;;;;5056157;28;20043;-72
2020/12/07 12:31:52;;;;;;;8.80;3.25;;;10.60;86.60;;;;;;5056415;28;20025;-68
2020/12/07 12:34:18;;;;;;;5.35;2.85;;;10.60;86.60;;;;;;5056432;28;20017;-67
2020/12/07 12:36:47;;;;;;;5.05;2.70;;;10.80;86.00;;;;;;5055926;28;20494;-70
2020/12/07 12:39:13;;;;;;;5.93;3.88;;;10.90;85.80;;;;;;5056051;28;20100;-71
2020/12/07 12:41:39;;;;;;;8.05;4.05;;;11.00;85.50;;;;;;5055902;28;20076;-72
2020/12/07 12:44:08;;;;;;;3.38;2.33;;;11.10;85.00;;;;;;5055878;28;20108;-67
2020/12/07 12:46:37;;;;;;;5.43;2.60;;;11.20;84.60;;;;;;5055006;28;20037;-68
2020/12/07 12:49:04;;;;;;;11.80;6.40;;;11.20;84.20;;;;;;5056017;28;20029;-69
2020/12/07 12:51:29;;;;;;;7.68;3.80;;;11.30;83.90;;;;;;5055639;28;20025;-69
2020/12/07 12:53:55;;;;;;;6.40;3.30;;;11.30;83.60;;;;;;5055844;28;20128;-71
2020/12/07 12:56:22;;;;;;;5.50;2.78;;;11.30;83.40;;;;;;5051676;28;20037;-69
2020/12/07 12:58:48;;;;;;;7.13;3.03;;;11.30;83.30;;;;;;5042402;28;20064;-72
2020/12/07 13:01:14;;;;;;;5.55;3.03;;;11.30;83.20;;;;;;5042177;28;20116;-69
2020/12/07 13:03:43;;;;;;;8.77;2.80;;;11.30;82.60;;;;;;5043863;28;20030;-75
2020/12/07 13:06:09;;;;;;;6.85;2.80;;;11.30;82.60;;;;;;5047078;28;20060;-71
2020/12/07 13:08:35;;;;;;;5.93;2.70;;;11.40;82.50;;;;;;5043127;28;20029;-77
2020/12/07 13:11:01;;;;;;;8.45;2.55;;;11.40;82.30;;;;;;5045265;28;20102;-76
2020/12/07 13:13:27;;;;;;;12.18;4.30;;;11.40;82.40;;;;;;5044376;28;20029;-76
2020/12/07 13:18:18;;;;;;;5.38;2.45;;;11.30;82.60;;;;;;5054968;28;20053;-77
2020/12/07 13:23:27;;;;;;;5.63;2.28;;;11.10;83.10;;;;;;5035202;28;20045;-74
2020/12/07 13:26:07;;;;;;;9.13;2.20;;;11.10;83.90;;;;;;5048509;28;20037;-76
2020/12/07 13:28:32;;;;;;;4.53;1.90;;;11.10;83.00;;;;;;5054829;28;20029;-69
2020/12/07 13:30:58;;;;;;;4.07;2.10;;;11.10;83.10;;;;;;5038450;28;20030;-69